createdAt,value
2023-01-21T00:01:58.851Z,15.98
2023-01-21T00:04:34.491Z,17.27
2023-01-21T00:07:08.780Z,15.93
2023-01-21T00:09:42.173Z,14.27
2023-01-21T00:12:16.386Z,16.15
2023-01-21T00:14:50.092Z,16.42
2023-01-21T00:17:25.191Z,16.38
2023-01-21T00:19:58.343Z,17.38
2023-01-21T00:22:31.688Z,18.83
2023-01-21T00:25:05.315Z,18.75
2023-01-21T00:27:38.576Z,17.55
2023-01-21T00:30:12.963Z,18.10
2023-01-21T00:32:47.716Z,16.98
2023-01-21T00:35:20.870Z,18.23
2023-01-21T00:37:54.379Z,17.50
2023-01-21T00:40:27.779Z,16.65
2023-01-21T00:43:01.256Z,15.88
2023-01-21T00:45:34.717Z,17.77
2023-01-21T00:48:24.199Z,19.20
2023-01-21T00:51:00.714Z,18.75
2023-01-21T00:53:36.280Z,16.00
2023-01-21T00:56:11.205Z,16.95
2023-01-21T00:58:45.120Z,14.88
2023-01-21T01:01:20.719Z,15.00
2023-01-21T01:03:55.281Z,15.45
2023-01-21T01:06:28.688Z,14.98
2023-01-21T01:09:02.044Z,13.73
2023-01-21T01:11:35.340Z,15.25
2023-01-21T01:14:09.587Z,11.43
2023-01-21T01:16:44.448Z,9.73
2023-01-21T01:19:19.509Z,7.50
2023-01-21T01:21:52.711Z,7.25
2023-01-21T01:24:26.058Z,6.07
2023-01-21T01:26:59.814Z,5.57
2023-01-21T01:29:33.391Z,6.53
2023-01-21T01:32:07.133Z,6.15
2023-01-21T01:34:41.754Z,5.63
2023-01-21T01:37:16.892Z,6.68
2023-01-21T01:39:50.167Z,5.50
2023-01-21T01:42:23.799Z,5.50
2023-01-21T01:45:00.358Z,6.28
2023-01-21T01:47:38.646Z,6.22
2023-01-21T01:50:19.116Z,6.85
2023-01-21T01:52:52.316Z,8.77
2023-01-21T01:55:25.758Z,12.10
2023-01-21T01:58:00.039Z,12.73
2023-01-21T02:00:33.549Z,11.40
2023-01-21T02:03:25.048Z,8.75
2023-01-21T02:06:00.238Z,7.50
2023-01-21T02:08:36.377Z,7.63
2023-01-21T02:11:13.288Z,8.65
2023-01-21T02:13:51.824Z,10.02
2023-01-21T02:16:50.405Z,8.43
2023-01-21T02:19:44.101Z,6.43
2023-01-21T02:22:28.976Z,6.73
2023-01-21T02:25:45.759Z,5.38
2023-01-21T02:29:09.614Z,6.82
2023-01-21T02:32:10.252Z,5.80
2023-01-21T02:34:50.548Z,5.28
2023-01-21T02:37:29.981Z,5.95
2023-01-21T02:40:15.055Z,6.10
2023-01-21T02:42:52.144Z,5.60
2023-01-21T02:45:30.905Z,6.28
2023-01-21T02:48:09.012Z,6.07
2023-01-21T02:50:46.292Z,6.35
2023-01-21T02:53:26.169Z,5.80
2023-01-21T02:56:06.607Z,5.90
2023-01-21T02:58:47.548Z,6.65
2023-01-21T03:01:32.933Z,6.65
2023-01-21T03:04:53.421Z,7.50
2023-01-21T03:07:34.282Z,6.80
2023-01-21T03:10:11.211Z,8.40
2023-01-21T03:12:56.382Z,7.00
2023-01-21T03:15:50.356Z,7.63
2023-01-21T03:18:27.607Z,6.60
2023-01-21T03:21:08.419Z,6.30
2023-01-21T03:23:47.405Z,5.95
2023-01-21T03:26:25.677Z,5.72
2023-01-21T03:29:03.349Z,5.95
2023-01-21T03:31:40.400Z,6.13
2023-01-21T03:34:16.825Z,5.32
2023-01-21T03:36:56.032Z,5.93
2023-01-21T03:39:39.588Z,6.38
2023-01-21T03:42:14.236Z,6.88
2023-01-21T03:44:47.886Z,6.43
2023-01-21T03:50:01.627Z,6.57
2023-01-21T03:52:35.356Z,5.43
2023-01-21T03:55:11.456Z,5.25
2023-01-21T03:57:44.722Z,5.55
2023-01-21T04:00:19.543Z,5.50
2023-01-21T04:02:53.299Z,5.35
2023-01-21T04:05:26.664Z,4.45
2023-01-21T04:07:59.951Z,5.65
2023-01-21T04:10:34.699Z,5.05
2023-01-21T04:13:10.192Z,5.20
2023-01-21T04:15:43.827Z,4.80
2023-01-21T04:18:17.082Z,5.18
2023-01-21T04:20:50.893Z,5.88
2023-01-21T04:25:58.496Z,4.70
2023-01-21T04:28:31.722Z,4.38
2023-01-21T04:31:05.404Z,4.28
2023-01-21T04:33:38.732Z,4.78
2023-01-21T04:36:12.057Z,4.63
2023-01-21T04:38:45.294Z,4.57
2023-01-21T04:41:20.052Z,5.28
2023-01-21T04:43:53.439Z,4.40
2023-01-21T04:46:26.606Z,4.95
2023-01-21T04:48:59.701Z,4.53
2023-01-21T04:51:32.996Z,5.28
2023-01-21T04:54:06.308Z,4.63
2023-01-21T04:56:40.982Z,4.30
2023-01-21T04:59:14.269Z,4.65
2023-01-21T05:01:47.702Z,5.45
2023-01-21T05:04:21.658Z,5.13
2023-01-21T05:06:55.705Z,4.72
2023-01-21T05:09:28.911Z,5.78
2023-01-21T05:14:37.771Z,6.18
2023-01-21T05:17:11.494Z,6.00
2023-01-21T05:22:18.466Z,5.55
2023-01-21T05:24:52.021Z,6.85
2023-01-21T05:27:27.129Z,10.02
2023-01-21T05:30:00.819Z,9.98
2023-01-21T05:35:09.920Z,6.43
2023-01-21T05:37:43.110Z,6.40
2023-01-21T05:40:17.558Z,6.13
2023-01-21T05:42:52.373Z,5.38
2023-01-21T05:45:25.962Z,5.20
2023-01-21T05:47:59.447Z,4.82
2023-01-21T05:50:32.970Z,5.15
2023-01-21T05:53:06.476Z,4.32
2023-01-21T05:55:39.966Z,5.65
2023-01-21T05:58:14.612Z,6.38
2023-01-21T06:00:48.726Z,7.45
2023-01-21T06:05:55.500Z,8.45
2023-01-21T06:08:28.979Z,8.85
2023-01-21T06:11:02.277Z,9.93
2023-01-21T06:13:51.564Z,15.10
2023-01-21T06:16:24.907Z,15.65
2023-01-21T06:18:58.350Z,15.48
2023-01-21T06:21:31.694Z,16.10
2023-01-21T06:24:05.282Z,15.90
2023-01-21T06:26:38.554Z,11.32
2023-01-21T06:29:13.788Z,9.32
2023-01-21T06:31:47.358Z,8.98
2023-01-21T06:34:21.387Z,12.98
2023-01-21T06:36:54.789Z,13.48
2023-01-21T06:39:28.088Z,13.15
2023-01-21T06:42:01.503Z,11.93
2023-01-21T06:44:36.132Z,11.25
2023-01-21T06:47:09.473Z,11.13
2023-01-21T06:49:43.437Z,11.05
2023-01-21T06:52:16.740Z,10.35
2023-01-21T06:54:50.408Z,9.80
2023-01-21T06:57:24.889Z,10.00
2023-01-21T06:59:59.494Z,8.02
2023-01-21T07:02:32.827Z,7.43
2023-01-21T07:05:06.910Z,9.27
2023-01-21T07:07:40.408Z,9.32
2023-01-21T07:10:13.750Z,11.88
2023-01-21T07:12:46.919Z,11.23
2023-01-21T07:15:21.606Z,9.20
2023-01-21T07:17:54.818Z,9.57
2023-01-21T07:20:28.014Z,7.90
2023-01-21T07:23:01.211Z,12.93
2023-01-21T07:25:36.171Z,11.00
2023-01-21T07:28:09.362Z,19.80
2023-01-21T07:30:44.161Z,12.32
2023-01-21T07:33:17.443Z,17.42
2023-01-21T07:35:51.181Z,16.63
2023-01-21T07:38:26.038Z,14.90
2023-01-21T07:40:59.309Z,11.85
2023-01-21T07:43:32.515Z,9.25
2023-01-21T07:46:07.292Z,7.78
2023-01-21T07:48:40.416Z,9.38
2023-01-21T07:51:13.997Z,6.00
2023-01-21T07:53:47.366Z,5.78
2023-01-21T07:56:20.905Z,6.65
2023-01-21T07:58:54.947Z,10.32
2023-01-21T08:01:31.480Z,6.00
2023-01-21T08:04:04.863Z,4.97
2023-01-21T08:06:41.497Z,5.57
2023-01-21T08:09:14.961Z,5.20
2023-01-21T08:11:49.376Z,5.07
2023-01-21T08:14:23.080Z,3.70
2023-01-21T08:22:05.801Z,12.30
2023-01-21T08:24:38.950Z,20.88
2023-01-21T08:27:12.316Z,17.98
2023-01-21T08:29:46.944Z,8.15
2023-01-21T08:32:21.537Z,5.18
2023-01-21T08:34:54.806Z,4.88
2023-01-21T08:37:28.095Z,5.38
2023-01-21T08:40:01.361Z,4.38
2023-01-21T08:42:34.710Z,4.28
2023-01-21T08:45:08.932Z,4.78
2023-01-21T08:47:43.533Z,3.92
2023-01-21T08:50:17.488Z,4.28
2023-01-21T08:52:54.564Z,4.22
2023-01-21T08:55:28.256Z,4.88
2023-01-21T08:58:03.553Z,10.23
2023-01-21T09:00:37.087Z,10.10
2023-01-21T09:03:13.339Z,20.15
2023-01-21T09:05:46.651Z,20.77
2023-01-21T09:08:19.895Z,14.05
2023-01-21T09:11:03.699Z,8.82
2023-01-21T09:13:43.231Z,15.85
2023-01-21T09:16:18.501Z,7.72
2023-01-21T09:18:53.393Z,5.45
2023-01-21T09:21:27.111Z,5.10
2023-01-21T09:24:00.414Z,5.90
2023-01-21T09:26:33.661Z,5.05
2023-01-21T09:29:06.932Z,4.40
2023-01-21T09:31:40.297Z,5.32
2023-01-21T09:34:15.098Z,3.97
2023-01-21T09:36:48.351Z,3.35
2023-01-21T09:39:21.635Z,4.13
2023-01-21T09:41:58.192Z,3.42
2023-01-21T09:44:36.472Z,5.60
2023-01-21T09:47:19.220Z,12.48
2023-01-21T09:49:57.107Z,6.32
2023-01-21T09:52:34.460Z,7.38
2023-01-21T09:55:16.203Z,17.70
2023-01-21T09:58:14.713Z,13.52
2023-01-21T10:00:53.691Z,8.63
2023-01-21T10:03:34.148Z,12.55
2023-01-21T10:06:35.182Z,9.10
2023-01-21T10:09:36.605Z,7.50
2023-01-21T10:12:35.547Z,9.50
2023-01-21T10:15:34.883Z,9.20
2023-01-21T10:18:12.248Z,11.85
2023-01-21T10:20:51.825Z,5.65
2023-01-21T10:23:29.902Z,5.28
2023-01-21T10:26:09.428Z,6.25
2023-01-21T10:28:48.408Z,6.88
2023-01-21T10:31:24.500Z,6.43
2023-01-21T10:33:57.934Z,5.88
2023-01-21T10:37:01.769Z,5.82
2023-01-21T10:39:45.310Z,5.00
2023-01-21T10:42:35.914Z,5.77
2023-01-21T10:45:19.018Z,7.65
2023-01-21T10:48:03.132Z,7.80
2023-01-21T10:50:48.040Z,9.07
2023-01-21T10:53:28.486Z,7.57
2023-01-21T10:56:21.176Z,6.47
2023-01-21T10:58:58.759Z,5.53
2023-01-21T11:01:36.617Z,4.75
2023-01-21T11:04:14.396Z,7.13
2023-01-21T11:06:53.683Z,9.57
2023-01-21T11:09:29.648Z,9.25
2023-01-21T11:12:05.982Z,9.23
2023-01-21T11:14:40.038Z,15.32
2023-01-21T11:17:14.354Z,17.77
2023-01-21T11:19:59.625Z,14.52
2023-01-21T11:22:34.009Z,12.13
2023-01-21T11:25:26.298Z,10.70
2023-01-21T11:28:01.224Z,11.07
2023-01-21T11:30:50.012Z,11.73
2023-01-21T11:33:35.650Z,11.38
2023-01-21T11:36:15.286Z,15.90
2023-01-21T11:39:01.137Z,13.90
2023-01-21T11:41:34.891Z,14.98
2023-01-21T11:44:18.758Z,14.50
2023-01-21T11:46:53.301Z,15.15
2023-01-21T11:49:29.990Z,13.90
2023-01-21T11:52:18.711Z,13.25
2023-01-21T11:54:51.850Z,11.15
2023-01-21T11:57:33.877Z,9.85
2023-01-21T12:00:19.951Z,11.32
2023-01-21T12:02:57.176Z,9.90
2023-01-21T12:05:34.110Z,10.75
2023-01-21T12:08:08.773Z,7.57
2023-01-21T12:10:45.165Z,7.40
2023-01-21T12:13:21.221Z,7.13
2023-01-21T12:16:26.564Z,7.70
2023-01-21T12:19:21.452Z,7.05
2023-01-21T12:22:07.905Z,7.00
2023-01-21T12:24:55.417Z,7.18
2023-01-21T12:27:36.150Z,5.95
2023-01-21T12:30:18.148Z,6.72
2023-01-21T12:32:58.486Z,5.95
2023-01-21T12:35:37.316Z,6.88
2023-01-21T12:38:16.127Z,7.95
2023-01-21T12:40:56.953Z,8.35
2023-01-21T12:43:36.331Z,11.80
2023-01-21T12:46:16.929Z,7.75
2023-01-21T12:48:55.807Z,7.60
2023-01-21T12:51:31.814Z,6.82
2023-01-21T12:54:19.364Z,7.20
2023-01-21T12:56:58.803Z,8.10
2023-01-21T12:59:39.688Z,7.00
2023-01-21T13:02:33.499Z,6.35
2023-01-21T13:05:19.002Z,7.07
2023-01-21T13:08:30.690Z,7.13
2023-01-21T13:11:23.563Z,7.90
2023-01-21T13:14:20.492Z,6.72
2023-01-21T13:17:12.550Z,9.10
2023-01-21T13:19:45.890Z,7.75
2023-01-21T13:22:43.705Z,8.77
2023-01-21T13:28:18.785Z,14.15
2023-01-21T13:31:08.641Z,11.60
2023-01-21T13:34:05.846Z,8.90
2023-01-21T13:37:02.869Z,20.67
2023-01-21T13:40:00.155Z,24.00
2023-01-21T13:42:44.306Z,19.35
2023-01-21T13:45:36.538Z,18.45
2023-01-21T13:48:34.259Z,14.27
2023-01-21T13:51:34.078Z,15.75
2023-01-21T13:54:43.775Z,11.32
2023-01-21T13:57:58.729Z,7.07
2023-01-21T14:00:55.624Z,9.93
2023-01-21T14:03:49.305Z,18.55
2023-01-21T14:06:39.957Z,22.25
2023-01-21T14:09:34.868Z,16.80
2023-01-21T14:12:35.987Z,15.70
2023-01-21T14:15:44.933Z,10.45
2023-01-21T14:18:48.591Z,8.77
2023-01-21T14:21:41.006Z,6.07
2023-01-21T14:24:44.175Z,5.63
2023-01-21T14:27:28.980Z,5.90
2023-01-21T14:30:20.037Z,14.93
2023-01-21T14:33:14.188Z,9.45
2023-01-21T14:36:09.299Z,8.35
2023-01-21T14:39:05.514Z,7.13
2023-01-21T14:42:02.987Z,7.65
2023-01-21T14:45:04.694Z,7.75
2023-01-21T14:47:50.641Z,12.55
2023-01-21T14:50:48.318Z,19.88
2023-01-21T14:53:25.595Z,14.52
2023-01-21T14:56:24.429Z,10.45
2023-01-21T14:59:33.231Z,14.30
2023-01-21T15:02:28.579Z,15.05
2023-01-21T15:05:05.050Z,11.30
2023-01-21T15:08:08.208Z,11.05
2023-01-21T15:10:43.184Z,10.00
2023-01-21T15:13:29.669Z,11.32
2023-01-21T15:16:16.367Z,10.63
2023-01-21T15:19:24.363Z,9.27
2023-01-21T15:22:39.816Z,8.88
2023-01-21T15:25:21.259Z,7.65
2023-01-21T15:28:44.244Z,6.53
2023-01-21T15:31:43.472Z,6.88
2023-01-21T15:34:35.019Z,9.60
2023-01-21T15:37:22.416Z,15.18
2023-01-21T15:40:19.322Z,12.20
2023-01-21T15:43:20.539Z,9.50
2023-01-21T15:46:23.858Z,10.95
2023-01-21T15:49:26.253Z,13.45
2023-01-21T15:52:29.434Z,13.70
2023-01-21T15:55:33.860Z,7.45
2023-01-21T15:58:29.684Z,8.63
2023-01-21T16:01:27.047Z,11.32
2023-01-21T16:04:29.560Z,12.27
2023-01-21T16:07:22.060Z,14.07
2023-01-21T16:10:20.231Z,13.02
2023-01-21T16:13:17.618Z,35.60
2023-01-21T16:16:14.733Z,43.75
2023-01-21T16:18:59.294Z,25.95
2023-01-21T16:21:52.184Z,19.33
2023-01-21T16:24:28.882Z,16.10
2023-01-21T16:27:18.424Z,8.38
2023-01-21T16:30:03.243Z,14.52
2023-01-21T16:32:44.323Z,14.38
2023-01-21T16:35:43.109Z,17.45
2023-01-21T16:38:30.741Z,12.90
2023-01-21T16:41:24.217Z,8.35
2023-01-21T16:44:17.538Z,7.20
2023-01-21T16:47:05.587Z,8.57
2023-01-21T16:49:54.937Z,10.38
2023-01-21T16:52:28.471Z,8.30
2023-01-21T16:55:01.838Z,7.40
2023-01-21T16:57:40.285Z,5.57
2023-01-21T17:00:24.478Z,6.28
2023-01-21T17:03:13.083Z,5.28
2023-01-21T17:06:06.701Z,4.70
2023-01-21T17:08:59.950Z,6.57
2023-01-21T17:11:48.413Z,6.47
2023-01-21T17:14:31.965Z,6.75
2023-01-21T17:17:24.087Z,7.50
2023-01-21T17:20:35.557Z,7.65
2023-01-21T17:23:19.273Z,5.63
2023-01-21T17:25:56.366Z,5.60
2023-01-21T17:28:47.916Z,7.25
2023-01-21T17:31:28.618Z,7.43
2023-01-21T17:34:22.947Z,6.25
2023-01-21T17:37:43.067Z,7.32
2023-01-21T17:40:32.995Z,7.75
2023-01-21T17:43:23.535Z,7.60
2023-01-21T17:46:20.378Z,7.85
2023-01-21T17:49:14.833Z,8.70
2023-01-21T17:52:03.088Z,7.65
2023-01-21T17:54:50.306Z,8.48
2023-01-21T17:57:39.741Z,8.52
2023-01-21T18:00:35.665Z,9.70
2023-01-21T18:03:09.544Z,7.25
2023-01-21T18:05:49.215Z,9.15
2023-01-21T18:08:37.239Z,7.00
2023-01-21T18:11:25.346Z,7.68
2023-01-21T18:14:18.821Z,9.45
2023-01-21T18:17:10.458Z,6.82
2023-01-21T18:19:58.079Z,6.95
2023-01-21T18:22:47.485Z,6.53
2023-01-21T18:25:35.581Z,7.00
2023-01-21T18:28:26.685Z,7.15
2023-01-21T18:31:16.763Z,5.45
2023-01-21T18:34:05.501Z,3.55
2023-01-21T18:36:54.577Z,5.22
2023-01-21T18:39:42.649Z,5.10
2023-01-21T18:42:24.577Z,5.68
2023-01-21T18:45:18.004Z,5.63
2023-01-21T18:47:59.597Z,5.82
2023-01-21T18:50:48.038Z,7.75
2023-01-21T18:53:34.985Z,6.40
2023-01-21T18:56:15.883Z,5.43
2023-01-21T18:59:04.273Z,8.60
2023-01-21T19:01:50.026Z,15.07
2023-01-21T19:04:25.283Z,14.02
2023-01-21T19:07:16.640Z,14.68
2023-01-21T19:09:58.667Z,15.48
2023-01-21T19:12:49.769Z,20.30
2023-01-21T19:15:38.940Z,15.95
2023-01-21T19:18:14.726Z,13.93
2023-01-21T19:20:58.606Z,15.88
2023-01-21T19:23:47.887Z,14.93
2023-01-21T19:26:37.353Z,13.90
2023-01-21T19:29:29.158Z,16.75
2023-01-21T19:32:15.022Z,17.27
2023-01-21T19:40:31.348Z,23.67
2023-01-21T19:43:17.233Z,28.08
2023-01-21T19:46:12.176Z,34.75
2023-01-21T19:48:55.571Z,30.08
2023-01-21T19:51:39.505Z,24.10
2023-01-21T19:54:30.003Z,22.15
2023-01-21T19:57:19.752Z,22.83
2023-01-21T19:59:54.718Z,20.02
2023-01-21T20:02:43.720Z,20.50
2023-01-21T20:05:18.076Z,20.60
2023-01-21T20:08:04.994Z,23.88
2023-01-21T20:10:54.953Z,16.48
2023-01-21T20:13:43.764Z,14.82
2023-01-21T20:16:23.945Z,13.23
2023-01-21T20:19:03.393Z,14.48
2023-01-21T20:21:59.649Z,12.07
2023-01-21T20:24:49.337Z,11.98
2023-01-21T20:27:33.599Z,10.87
2023-01-21T20:30:28.241Z,11.50
2023-01-21T20:33:19.206Z,9.55
2023-01-21T20:36:01.669Z,10.55
2023-01-21T20:38:44.445Z,12.05
2023-01-21T20:41:32.715Z,10.60
2023-01-21T20:44:22.246Z,9.48
2023-01-21T20:47:11.875Z,10.70
2023-01-21T20:49:51.411Z,8.00
2023-01-21T20:52:37.903Z,8.18
2023-01-21T20:55:27.379Z,8.65
2023-01-21T20:58:16.517Z,8.60
2023-01-21T21:01:01.945Z,7.03
2023-01-21T21:03:51.195Z,8.90
2023-01-21T21:06:34.891Z,6.70
2023-01-21T21:09:08.468Z,6.75
2023-01-21T21:11:56.516Z,6.80
2023-01-21T21:14:33.442Z,5.97
2023-01-21T21:17:23.056Z,7.38
2023-01-21T21:20:19.725Z,6.90
2023-01-21T21:23:08.897Z,6.75
2023-01-21T21:25:55.542Z,7.50
2023-01-21T21:28:35.070Z,7.93
2023-01-21T21:31:19.255Z,8.55
2023-01-21T21:34:07.001Z,8.73
2023-01-21T21:36:50.765Z,10.23
2023-01-21T21:39:30.340Z,10.45
2023-01-21T21:42:21.498Z,9.02
2023-01-21T21:44:54.887Z,9.25
2023-01-21T21:47:54.937Z,8.43
2023-01-21T21:50:29.725Z,8.52
2023-01-21T21:53:12.545Z,6.78
2023-01-21T21:55:56.765Z,6.75
2023-01-21T21:58:37.347Z,6.45
2023-01-21T22:01:21.738Z,6.30
2023-01-21T22:03:55.247Z,7.00
2023-01-21T22:06:44.772Z,6.50
2023-01-21T22:09:28.120Z,7.32
2023-01-21T22:12:09.927Z,7.97
2023-01-21T22:14:57.892Z,9.45
2023-01-21T22:17:34.671Z,7.90
2023-01-21T22:20:08.740Z,6.70
2023-01-21T22:22:57.976Z,6.72
2023-01-21T22:25:45.883Z,5.65
2023-01-21T22:28:29.517Z,6.23
2023-01-21T22:31:19.143Z,7.65
2023-01-21T22:34:07.195Z,5.63
2023-01-21T22:36:53.400Z,7.13
2023-01-21T22:39:42.758Z,5.93
2023-01-21T22:42:15.926Z,7.28
2023-01-21T22:44:49.124Z,6.15
2023-01-21T22:47:34.889Z,6.03
2023-01-21T22:50:12.937Z,7.28
2023-01-21T22:53:00.820Z,6.28
2023-01-21T22:55:36.484Z,6.43
2023-01-21T22:58:09.759Z,6.25
2023-01-21T23:00:43.081Z,6.65
2023-01-21T23:03:31.834Z,6.55
2023-01-21T23:06:20.500Z,6.65
2023-01-21T23:09:11.206Z,6.45
2023-01-21T23:11:52.707Z,6.05
2023-01-21T23:14:40.260Z,7.20
2023-01-21T23:17:28.159Z,8.43
2023-01-21T23:20:01.434Z,8.32
2023-01-21T23:22:34.921Z,7.88
2023-01-21T23:25:19.279Z,8.50
2023-01-21T23:28:06.984Z,9.32
2023-01-21T23:30:55.022Z,8.30
2023-01-21T23:33:41.467Z,7.78
2023-01-21T23:36:29.461Z,7.28
2023-01-21T23:39:03.590Z,8.98
2023-01-21T23:41:51.549Z,8.50
2023-01-21T23:44:40.855Z,9.10
2023-01-21T23:47:29.517Z,9.82
2023-01-21T23:50:08.859Z,9.95
2023-01-21T23:52:42.849Z,10.40
2023-01-21T23:55:27.068Z,12.73
2023-01-21T23:58:00.378Z,13.70
